createdAt,value
2023-03-08T00:05:01.830Z,1.20
2023-03-08T00:10:05.072Z,1.50
2023-03-08T00:15:07.480Z,1.90
2023-03-08T00:20:11.203Z,2.40
2023-03-08T00:25:16.393Z,2.70
2023-03-08T00:30:18.207Z,3.00
2023-03-08T00:35:20.594Z,3.20
2023-03-08T00:40:22.412Z,3.40
2023-03-08T00:45:24.199Z,3.60
2023-03-08T00:50:26.006Z,3.70
2023-03-08T00:55:27.826Z,3.90
2023-03-08T01:00:30.420Z,4.00
2023-03-08T01:05:32.205Z,4.10
2023-03-08T01:10:34.296Z,4.20
2023-03-08T01:15:37.385Z,4.20
2023-03-08T01:20:39.217Z,4.30
2023-03-08T01:25:41.022Z,4.40
2023-03-08T01:30:42.800Z,4.50
2023-03-08T01:35:44.645Z,4.50
2023-03-08T01:40:46.454Z,4.50
2023-03-08T01:46:15.925Z,4.60
2023-03-08T01:51:22.065Z,4.70
2023-03-08T01:56:25.013Z,4.70
2023-03-08T02:01:27.246Z,4.80
2023-03-08T02:06:29.606Z,4.90
2023-03-08T02:11:33.859Z,4.90
2023-03-08T02:16:35.669Z,5.00
2023-03-08T02:21:37.699Z,5.10
2023-03-08T02:26:39.518Z,5.10
2023-03-08T02:31:41.387Z,5.20
2023-03-08T02:36:43.266Z,5.20
2023-03-08T02:41:45.066Z,5.10
2023-03-08T02:46:46.916Z,5.10
2023-03-08T02:51:48.777Z,5.10
2023-03-08T02:56:50.563Z,5.10
2023-03-08T03:01:52.910Z,5.10
2023-03-08T03:06:55.035Z,5.00
2023-03-08T03:11:56.867Z,5.00
2023-03-08T03:16:58.924Z,4.90
2023-03-08T03:22:00.742Z,4.90
2023-03-08T03:27:02.537Z,4.90
2023-03-08T03:32:04.540Z,4.90
2023-03-08T03:37:06.367Z,5.00
2023-03-08T03:42:08.994Z,5.00
2023-03-08T03:47:10.884Z,5.10
2023-03-08T03:52:12.743Z,5.10
2023-03-08T03:57:14.592Z,5.20
2023-03-08T04:02:16.378Z,5.10
2023-03-08T04:07:18.850Z,5.10
2023-03-08T04:12:20.688Z,5.00
2023-03-08T04:17:22.488Z,4.90
2023-03-08T04:22:24.277Z,4.90
2023-03-08T04:27:26.148Z,4.90
2023-03-08T04:32:27.957Z,4.80
2023-03-08T04:37:30.662Z,4.70
2023-03-08T04:42:32.462Z,4.70
2023-03-08T04:47:34.240Z,4.60
2023-03-08T04:52:36.009Z,4.50
2023-03-08T04:57:37.824Z,4.50
2023-03-08T05:02:39.737Z,4.40
2023-03-08T05:07:41.943Z,4.30
2023-03-08T05:12:43.785Z,4.30
2023-03-08T05:17:45.627Z,4.20
2023-03-08T05:22:58.292Z,4.10
2023-03-08T05:28:00.951Z,4.10
2023-03-08T05:33:02.729Z,3.90
2023-03-08T05:38:04.512Z,4.00
2023-03-08T05:43:06.287Z,4.00
2023-03-08T05:48:08.143Z,4.00
2023-03-08T05:53:09.966Z,4.00
2023-03-08T05:58:11.740Z,4.00
2023-03-08T06:03:13.678Z,4.00
2023-03-08T06:08:15.685Z,4.00
2023-03-08T06:13:17.496Z,4.00
2023-03-08T06:18:19.304Z,4.20
2023-03-08T06:23:21.085Z,4.60
2023-03-08T06:28:23.404Z,5.10
2023-03-08T06:33:27.638Z,5.60
2023-03-08T06:38:33.007Z,6.00
2023-03-08T06:43:35.822Z,6.40
2023-03-08T06:48:37.874Z,6.80
2023-03-08T06:53:39.911Z,7.20
2023-03-08T06:58:41.963Z,7.60
2023-03-08T07:03:45.399Z,7.80
2023-03-08T07:08:47.576Z,7.90
2023-03-08T07:13:49.397Z,8.30
2023-03-08T07:18:51.253Z,8.70
2023-03-08T07:23:53.337Z,8.60
2023-03-08T07:28:55.914Z,8.30
2023-03-08T07:33:57.835Z,8.10
2023-03-08T07:39:00.912Z,8.30
2023-03-08T07:44:03.601Z,8.50
2023-03-08T07:49:10.433Z,8.90
2023-03-08T07:54:12.982Z,9.30
2023-03-08T07:59:15.013Z,9.80
2023-03-08T08:04:17.165Z,10.40
2023-03-08T08:09:19.332Z,10.80
2023-03-08T08:14:21.235Z,11.10
2023-03-08T08:19:23.452Z,11.20
2023-03-08T08:24:25.285Z,11.40
2023-03-08T08:29:27.138Z,11.40
2023-03-08T08:34:28.925Z,11.40
2023-03-08T08:39:33.555Z,11.70
2023-03-08T08:44:35.556Z,12.10
2023-03-08T08:49:37.538Z,12.30
2023-03-08T08:54:40.007Z,12.40
2023-03-08T08:59:41.881Z,12.40
2023-03-08T09:04:43.777Z,12.40
2023-03-08T09:09:46.889Z,12.60
2023-03-08T09:14:49.135Z,12.80
2023-03-08T09:19:51.863Z,12.70
2023-03-08T09:24:53.744Z,12.60
2023-03-08T09:29:55.532Z,12.30
2023-03-08T09:34:57.984Z,12.10
2023-03-08T09:39:59.895Z,12.10
2023-03-08T09:45:23.898Z,12.10
2023-03-08T09:50:32.963Z,11.90
2023-03-08T09:55:37.515Z,11.50
2023-03-08T10:00:40.715Z,11.20
2023-03-08T10:05:42.431Z,11.10
2023-03-08T10:10:56.252Z,11.00
2023-03-08T10:16:13.124Z,10.90
2023-03-08T10:21:18.027Z,10.80
2023-03-08T10:26:19.809Z,10.90
2023-03-08T10:31:27.135Z,11.10
2023-03-08T10:36:29.058Z,11.20
2023-03-08T10:41:32.911Z,11.30
2023-03-08T10:46:34.952Z,11.40
2023-03-08T10:51:36.868Z,11.60
2023-03-08T10:57:00.273Z,11.50
2023-03-08T11:02:15.369Z,11.40
2023-03-08T11:07:24.223Z,11.30
2023-03-08T11:12:26.798Z,11.40
2023-03-08T11:17:35.623Z,11.50
2023-03-08T11:23:04.477Z,11.70
2023-03-08T11:28:38.427Z,11.80
2023-03-08T11:34:02.465Z,12.10
2023-03-08T11:39:16.962Z,12.30
2023-03-08T11:44:40.499Z,12.30
2023-03-08T11:49:42.254Z,12.40
2023-03-08T11:55:11.939Z,12.20
2023-03-08T12:00:23.688Z,11.90
2023-03-08T12:05:49.371Z,11.80
2023-03-08T12:10:56.763Z,11.60
2023-03-08T12:16:18.952Z,11.30
2023-03-08T12:21:34.315Z,11.00
2023-03-08T12:26:43.894Z,10.80
2023-03-08T12:31:47.338Z,10.60
2023-03-08T12:36:49.281Z,10.30
2023-03-08T12:41:58.734Z,10.20
2023-03-08T12:47:19.178Z,10.20
2023-03-08T12:52:21.007Z,10.10
2023-03-08T12:57:30.561Z,10.00
2023-03-08T13:02:34.440Z,9.90
2023-03-08T13:07:52.957Z,9.90
2023-03-08T13:13:39.230Z,9.90
2023-03-08T13:19:00.497Z,9.80
2023-03-08T13:24:12.016Z,9.70
2023-03-08T13:29:18.837Z,9.70
2023-03-08T13:34:29.915Z,9.70
2023-03-08T13:39:33.165Z,9.60
2023-03-08T13:44:35.258Z,9.60
2023-03-08T13:49:38.590Z,9.60
2023-03-08T13:54:45.199Z,9.70
2023-03-08T13:59:54.573Z,9.80
2023-03-08T14:04:57.938Z,9.80
2023-03-08T14:10:00.230Z,9.90
2023-03-08T14:15:05.290Z,10.00
2023-03-08T14:20:21.871Z,10.00
2023-03-08T14:25:30.175Z,10.10
2023-03-08T14:30:32.423Z,10.10
2023-03-08T14:35:37.522Z,10.20
2023-03-08T14:40:46.898Z,10.30
2023-03-08T14:46:03.403Z,10.30
2023-03-08T14:51:17.317Z,10.40
2023-03-08T14:56:19.156Z,10.40
2023-03-08T15:01:39.473Z,10.40
2023-03-08T15:06:41.393Z,10.40
2023-03-08T15:11:44.484Z,10.40
2023-03-08T15:16:46.332Z,10.50
2023-03-08T15:21:48.582Z,10.60
2023-03-08T15:26:52.708Z,10.60
2023-03-08T15:31:56.515Z,10.60
2023-03-08T15:36:58.781Z,10.60
2023-03-08T15:42:00.820Z,10.50
2023-03-08T15:47:02.701Z,10.50
2023-03-08T15:52:06.931Z,10.40
2023-03-08T15:57:10.178Z,10.40
2023-03-08T16:02:16.702Z,10.40
2023-03-08T16:07:19.332Z,10.40
2023-03-08T16:12:26.752Z,10.40
2023-03-08T16:17:33.358Z,10.30
2023-03-08T16:22:35.560Z,10.30
2023-03-08T16:27:38.373Z,10.20
2023-03-08T16:32:43.472Z,10.10
2023-03-08T16:37:45.586Z,10.10
2023-03-08T16:42:50.592Z,10.00
2023-03-08T16:47:52.458Z,10.00
2023-03-08T16:52:54.930Z,9.90
2023-03-08T16:57:56.809Z,9.80
2023-03-08T17:02:58.887Z,9.70
2023-03-08T17:08:00.969Z,9.60
2023-03-08T17:13:05.911Z,9.60
2023-03-08T17:18:08.507Z,9.50
2023-03-08T17:23:11.728Z,9.30
2023-03-08T17:28:15.842Z,9.20
2023-03-08T17:33:17.744Z,9.00
2023-03-08T17:38:20.096Z,8.80
2023-03-08T17:43:21.975Z,8.70
2023-03-08T17:48:23.973Z,8.60
2023-03-08T17:53:25.766Z,8.40
2023-03-08T17:58:28.463Z,8.30
2023-03-08T18:03:30.249Z,8.10
2023-03-08T18:08:33.154Z,8.00
2023-03-08T18:13:35.011Z,7.80
2023-03-08T18:18:36.885Z,7.70
2023-03-08T18:23:41.996Z,7.60
2023-03-08T18:28:43.898Z,7.70
2023-03-08T18:33:46.145Z,7.60
2023-03-08T18:38:48.207Z,7.60
2023-03-08T18:43:51.336Z,7.70
2023-03-08T18:48:53.740Z,7.70
2023-03-08T18:53:56.066Z,7.80
2023-03-08T18:59:00.607Z,7.70
2023-03-08T19:04:09.776Z,7.60
2023-03-08T19:09:16.866Z,7.60
2023-03-08T19:14:18.692Z,7.60
2023-03-08T19:19:20.628Z,7.50
2023-03-08T19:24:22.528Z,7.50
2023-03-08T19:29:26.668Z,7.40
2023-03-08T19:34:40.345Z,7.40
2023-03-08T19:39:43.673Z,7.40
2023-03-08T19:44:48.408Z,7.40
2023-03-08T19:49:50.308Z,7.40
2023-03-08T19:54:52.455Z,7.50
2023-03-08T19:59:57.630Z,7.50
2023-03-08T20:05:00.468Z,7.50
2023-03-08T20:10:15.457Z,7.40
2023-03-08T20:15:18.304Z,7.50
2023-03-08T20:20:21.253Z,7.50
2023-03-08T20:25:23.716Z,7.50
2023-03-08T20:30:26.734Z,7.50
2023-03-08T20:35:28.772Z,7.60
2023-03-08T20:40:30.636Z,7.60
2023-03-08T20:45:32.565Z,7.60
2023-03-08T20:50:34.377Z,7.60
2023-03-08T20:55:38.834Z,7.60
2023-03-08T21:00:41.527Z,7.60
2023-03-08T21:05:43.824Z,7.50
2023-03-08T21:10:45.613Z,7.50
2023-03-08T21:15:48.551Z,7.50
2023-03-08T21:20:50.352Z,7.50
2023-03-08T21:25:53.407Z,7.50
2023-03-08T21:30:55.460Z,7.50
2023-03-08T21:35:58.326Z,7.50
2023-03-08T21:41:00.145Z,7.50
2023-03-08T21:46:04.296Z,7.40
2023-03-08T21:51:06.624Z,7.40
2023-03-08T21:56:09.803Z,7.40
2023-03-08T22:01:23.814Z,7.40
2023-03-08T22:06:25.715Z,7.40
2023-03-08T22:11:27.648Z,7.40
2023-03-08T22:16:30.669Z,7.40
2023-03-08T22:21:33.366Z,7.40
2023-03-08T22:26:35.472Z,7.40
2023-03-08T22:31:37.329Z,7.40
2023-03-08T22:36:40.733Z,7.40
2023-03-08T22:41:42.692Z,7.40
2023-03-08T22:46:44.617Z,7.40
2023-03-08T22:51:46.586Z,7.30
2023-03-08T22:56:49.964Z,7.20
2023-03-08T23:01:53.194Z,7.20
2023-03-08T23:06:55.037Z,7.10
2023-03-08T23:12:02.751Z,7.00
2023-03-08T23:17:04.815Z,7.00
2023-03-08T23:22:06.608Z,6.80
2023-03-08T23:27:08.970Z,6.70
2023-03-08T23:32:11.170Z,6.50
2023-03-08T23:37:13.120Z,6.50
2023-03-08T23:42:14.998Z,6.30
2023-03-08T23:47:16.896Z,6.20
2023-03-08T23:52:18.688Z,6.10
2023-03-08T23:57:20.480Z,6.00
